createdAt,value
2022-11-28T00:01:39.103Z,5.43
2022-11-28T00:04:08.013Z,6.47
2022-11-28T00:06:39.662Z,4.17
2022-11-28T00:09:08.248Z,5.37
2022-11-28T00:11:35.929Z,6.13
2022-11-28T00:14:02.771Z,3.77
2022-11-28T00:16:29.810Z,6.67
2022-11-28T00:18:59.730Z,2.80
2022-11-28T00:21:29.086Z,6.40
2022-11-28T00:23:55.825Z,5.10
2022-11-28T00:26:30.787Z,5.03
2022-11-28T00:28:59.718Z,6.93
2022-11-28T00:31:30.923Z,7.57
2022-11-28T00:33:57.971Z,7.07
2022-11-28T00:36:24.920Z,7.03
2022-11-28T00:38:52.201Z,6.43
2022-11-28T00:41:25.912Z,6.80
2022-11-28T00:43:53.225Z,6.47
2022-11-28T00:46:22.413Z,7.03
2022-11-28T00:48:50.163Z,7.03
2022-11-28T00:51:44.882Z,7.23
2022-11-28T00:54:11.753Z,7.37
2022-11-28T00:56:40.713Z,6.10
2022-11-28T00:59:07.636Z,6.70
2022-11-28T01:01:42.356Z,5.03
2022-11-28T01:04:13.683Z,8.00
2022-11-28T01:06:47.920Z,5.83
2022-11-28T01:09:22.038Z,8.17
2022-11-28T01:11:51.418Z,6.30
2022-11-28T01:14:25.036Z,8.70
2022-11-28T01:16:52.681Z,9.33
2022-11-28T01:19:19.937Z,8.07
2022-11-28T01:21:46.781Z,8.40
2022-11-28T01:24:14.508Z,7.43
2022-11-28T01:26:42.783Z,8.20
2022-11-28T01:29:10.087Z,7.03
2022-11-28T01:31:37.229Z,6.00
2022-11-28T01:34:04.271Z,3.47
2022-11-28T01:36:31.671Z,6.80
2022-11-28T01:38:58.494Z,7.43
2022-11-28T01:41:28.804Z,8.30
2022-11-28T01:44:29.804Z,8.33
2022-11-28T01:46:56.968Z,7.30
2022-11-28T01:49:34.603Z,8.13
2022-11-28T01:52:17.131Z,5.20
2022-11-28T01:54:50.566Z,5.07
2022-11-28T01:57:24.528Z,6.23
2022-11-28T02:00:10.740Z,8.10
2022-11-28T02:02:50.189Z,7.63
2022-11-28T02:05:21.054Z,8.17
2022-11-28T02:07:48.889Z,8.47
2022-11-28T02:10:24.298Z,8.10
2022-11-28T02:13:06.485Z,7.43
2022-11-28T02:15:45.933Z,7.83
2022-11-28T02:18:18.072Z,8.03
2022-11-28T02:21:24.815Z,7.07
2022-11-28T02:24:45.086Z,8.10
2022-11-28T02:27:58.993Z,3.17
2022-11-28T02:30:52.807Z,7.80
2022-11-28T02:33:30.991Z,6.80
2022-11-28T02:36:12.307Z,7.50
2022-11-28T02:39:10.790Z,8.47
2022-11-28T02:41:50.072Z,7.63
2022-11-28T02:44:30.772Z,7.97
2022-11-28T02:47:10.816Z,8.03
2022-11-28T02:49:49.206Z,8.50
2022-11-28T02:52:23.962Z,6.70
2022-11-28T02:54:52.277Z,5.83
2022-11-28T02:57:19.067Z,7.90
2022-11-28T02:59:52.189Z,7.67
2022-11-28T03:02:28.808Z,8.00
2022-11-28T03:05:35.726Z,8.10
2022-11-28T03:08:36.473Z,5.07
2022-11-28T03:11:39.954Z,7.43
2022-11-28T03:14:42.677Z,8.50
2022-11-28T03:17:28.388Z,4.33
2022-11-28T03:20:22.714Z,7.93
2022-11-28T03:23:13.171Z,8.53
2022-11-28T03:26:00.394Z,8.37
2022-11-28T03:28:39.290Z,6.83
2022-11-28T03:31:20.001Z,8.20
2022-11-28T03:33:56.531Z,7.10
2022-11-28T03:36:37.558Z,8.17
2022-11-28T03:39:13.943Z,8.80
2022-11-28T03:42:10.948Z,7.53
2022-11-28T03:45:00.560Z,8.13
2022-11-28T03:47:35.126Z,8.37
2022-11-28T03:50:11.306Z,6.73
2022-11-28T03:52:50.907Z,8.47
2022-11-28T03:55:37.664Z,8.27
2022-11-28T03:58:23.930Z,8.00
2022-11-28T04:00:59.299Z,4.97
2022-11-28T04:03:54.040Z,7.80
2022-11-28T04:06:47.118Z,7.27
2022-11-28T04:09:21.760Z,8.07
2022-11-28T04:11:56.586Z,8.13
2022-11-28T04:14:46.051Z,8.03
2022-11-28T04:17:32.907Z,8.23
2022-11-28T04:20:13.913Z,6.07
2022-11-28T04:22:54.080Z,9.07
2022-11-28T04:25:24.153Z,6.67
2022-11-28T04:28:08.438Z,8.07
2022-11-28T04:30:38.180Z,8.67
2022-11-28T04:33:11.063Z,9.23
2022-11-28T04:35:47.317Z,9.37
2022-11-28T04:38:14.484Z,9.20
2022-11-28T04:41:01.555Z,9.43
2022-11-28T04:43:37.908Z,8.80
2022-11-28T04:46:18.499Z,9.33
2022-11-28T04:48:45.575Z,9.60
2022-11-28T04:51:22.414Z,10.23
2022-11-28T04:54:06.427Z,10.50
2022-11-28T04:57:00.271Z,10.57
2022-11-28T04:59:30.386Z,9.60
2022-11-28T05:02:03.114Z,5.97
2022-11-28T05:04:30.431Z,10.40
2022-11-28T05:07:08.750Z,10.60
2022-11-28T05:09:36.447Z,9.90
2022-11-28T05:12:05.101Z,9.60
2022-11-28T05:14:32.178Z,9.77
2022-11-28T05:16:58.890Z,5.83
2022-11-28T05:19:25.714Z,9.40
2022-11-28T05:21:53.484Z,8.90
2022-11-28T05:24:22.364Z,9.57
2022-11-28T05:26:49.747Z,9.40
2022-11-28T05:29:17.154Z,7.77
2022-11-28T05:31:44.197Z,9.90
2022-11-28T05:34:11.123Z,9.30
2022-11-28T05:36:38.090Z,8.63
2022-11-28T05:39:04.948Z,9.40
2022-11-28T05:41:33.245Z,6.60
2022-11-28T05:44:01.170Z,9.73
2022-11-28T05:46:29.971Z,9.87
2022-11-28T05:48:57.368Z,7.23
2022-11-28T05:51:24.618Z,10.23
2022-11-28T05:53:51.532Z,10.03
2022-11-28T05:56:22.425Z,10.13
2022-11-28T05:58:50.044Z,9.53
2022-11-28T06:01:23.465Z,10.17
2022-11-28T06:03:51.851Z,9.87
2022-11-28T06:06:22.105Z,9.80
2022-11-28T06:08:51.495Z,9.80
2022-11-28T06:11:20.981Z,9.87
2022-11-28T06:13:49.883Z,10.40
2022-11-28T06:16:29.191Z,9.73
2022-11-28T06:19:00.615Z,9.60
2022-11-28T06:21:29.907Z,9.87
2022-11-28T06:24:00.669Z,9.83
2022-11-28T06:26:29.135Z,9.77
2022-11-28T06:28:56.549Z,9.60
2022-11-28T06:31:28.469Z,9.77
2022-11-28T06:33:56.609Z,10.27
2022-11-28T06:36:23.723Z,11.07
2022-11-28T06:38:50.544Z,8.83
2022-11-28T06:41:20.853Z,10.43
2022-11-28T06:43:47.673Z,9.83
2022-11-28T06:46:18.943Z,9.63
2022-11-28T06:48:48.628Z,10.23
2022-11-28T06:51:16.429Z,9.70
2022-11-28T06:53:43.405Z,9.10
2022-11-28T06:56:17.481Z,9.87
2022-11-28T06:58:45.648Z,8.83
2022-11-28T07:01:19.644Z,7.60
2022-11-28T07:03:47.480Z,7.83
2022-11-28T07:06:16.770Z,9.50
2022-11-28T07:08:43.994Z,5.10
2022-11-28T07:11:15.415Z,9.63
2022-11-28T07:13:46.154Z,9.10
2022-11-28T07:16:16.716Z,8.67
2022-11-28T07:18:44.714Z,6.90
2022-11-28T07:21:12.261Z,9.23
2022-11-28T07:23:39.043Z,9.70
2022-11-28T07:26:07.067Z,7.77
2022-11-28T07:28:35.146Z,10.10
2022-11-28T07:31:14.964Z,8.70
2022-11-28T07:33:44.619Z,9.67
2022-11-28T07:36:16.464Z,9.57
2022-11-28T07:38:43.498Z,7.73
2022-11-28T07:41:13.464Z,9.10
2022-11-28T07:43:43.036Z,9.53
2022-11-28T07:46:15.582Z,9.90
2022-11-28T07:48:42.754Z,9.97
2022-11-28T07:51:14.371Z,9.37
2022-11-28T07:53:42.608Z,10.27
2022-11-28T07:56:22.469Z,10.83
2022-11-28T07:58:49.869Z,10.30
2022-11-28T08:01:21.123Z,11.47
2022-11-28T08:03:48.581Z,10.33
2022-11-28T08:06:18.604Z,10.97
2022-11-28T08:08:47.184Z,10.97
2022-11-28T08:11:17.278Z,10.47
2022-11-28T08:13:44.713Z,9.93
2022-11-28T08:16:19.121Z,10.90
2022-11-28T08:18:48.191Z,9.67
2022-11-28T08:21:19.405Z,7.47
2022-11-28T08:23:46.618Z,9.73
2022-11-28T08:26:17.119Z,10.77
2022-11-28T08:28:44.601Z,10.37
2022-11-28T08:31:18.381Z,8.70
2022-11-28T08:33:47.545Z,9.77
2022-11-28T08:36:16.636Z,10.37
2022-11-28T08:38:57.815Z,8.53
2022-11-28T08:41:33.389Z,7.83
2022-11-28T08:44:00.127Z,10.13
2022-11-28T08:46:26.929Z,11.10
2022-11-28T08:48:53.769Z,10.37
2022-11-28T08:51:23.981Z,9.50
2022-11-28T08:53:57.839Z,10.37
2022-11-28T08:56:26.257Z,12.13
2022-11-28T08:58:52.989Z,11.07
2022-11-28T09:01:23.551Z,11.43
2022-11-28T09:03:51.101Z,11.77
2022-11-28T09:06:18.570Z,10.87
2022-11-28T09:08:45.667Z,10.43
2022-11-28T09:11:17.293Z,10.30
2022-11-28T09:13:44.798Z,8.37
2022-11-28T09:16:13.055Z,8.20
2022-11-28T09:18:40.403Z,8.87
2022-11-28T09:21:10.303Z,11.13
2022-11-28T09:23:38.878Z,11.20
2022-11-28T09:26:15.803Z,9.73
2022-11-28T09:28:43.556Z,11.10
2022-11-28T09:31:12.609Z,8.77
2022-11-28T09:33:39.849Z,9.37
2022-11-28T09:36:14.289Z,9.00
2022-11-28T09:38:41.549Z,9.23
2022-11-28T09:41:38.325Z,7.30
2022-11-28T09:44:58.672Z,9.93
2022-11-28T09:47:31.777Z,10.67
2022-11-28T09:50:10.771Z,10.73
2022-11-28T09:53:16.173Z,10.43
2022-11-28T09:55:52.570Z,10.60
2022-11-28T09:58:40.561Z,9.77
2022-11-28T10:01:10.381Z,9.33
2022-11-28T10:04:09.893Z,9.23
2022-11-28T10:07:14.099Z,10.30
2022-11-28T10:10:35.099Z,10.97
2022-11-28T10:14:06.168Z,10.90
2022-11-28T10:16:58.696Z,10.33
2022-11-28T10:19:54.223Z,10.37
2022-11-28T10:22:48.414Z,11.07
2022-11-28T10:25:19.231Z,9.57
2022-11-28T10:27:47.627Z,10.40
2022-11-28T10:30:34.071Z,9.53
2022-11-28T10:33:35.580Z,10.03
2022-11-28T10:36:03.785Z,9.17
2022-11-28T10:38:36.858Z,8.70
2022-11-28T10:41:34.947Z,9.53
2022-11-28T10:44:35.946Z,9.57
2022-11-28T10:47:18.867Z,9.43
2022-11-28T10:50:12.323Z,9.93
2022-11-28T10:52:57.495Z,9.77
2022-11-28T10:55:45.382Z,9.93
2022-11-28T10:58:34.161Z,9.73
2022-11-28T11:01:02.887Z,10.10
2022-11-28T11:03:35.367Z,9.80
2022-11-28T11:06:02.973Z,8.30
2022-11-28T11:08:40.797Z,9.73
2022-11-28T11:11:25.053Z,8.23
2022-11-28T11:14:10.808Z,9.53
2022-11-28T11:16:59.321Z,8.33
2022-11-28T11:19:33.924Z,10.10
2022-11-28T11:22:24.647Z,9.30
2022-11-28T11:25:12.558Z,9.93
2022-11-28T11:27:52.421Z,10.67
2022-11-28T11:30:38.515Z,11.17
2022-11-28T11:33:15.429Z,10.77
2022-11-28T11:35:48.828Z,11.27
2022-11-28T11:38:25.459Z,11.70
2022-11-28T11:40:52.808Z,11.10
2022-11-28T11:43:29.105Z,11.03
2022-11-28T11:46:11.847Z,11.20
2022-11-28T11:48:53.041Z,11.77
2022-11-28T11:51:22.559Z,11.20
2022-11-28T11:54:00.905Z,10.70
2022-11-28T11:56:36.553Z,10.63
2022-11-28T11:59:14.159Z,11.17
2022-11-28T12:01:43.887Z,11.77
2022-11-28T12:04:43.925Z,9.80
2022-11-28T12:07:29.529Z,11.13
2022-11-28T12:10:03.077Z,11.27
2022-11-28T12:12:36.790Z,9.37
2022-11-28T12:15:04.632Z,6.47
2022-11-28T12:18:06.933Z,11.00
2022-11-28T12:20:52.141Z,11.33
2022-11-28T12:23:44.884Z,10.63
2022-11-28T12:26:29.383Z,11.20
2022-11-28T12:29:40.826Z,11.83
2022-11-28T12:32:07.529Z,12.40
2022-11-28T12:35:21.238Z,13.30
2022-11-28T12:38:16.621Z,12.83
2022-11-28T12:41:05.728Z,13.20
2022-11-28T12:43:57.137Z,11.80
2022-11-28T12:46:47.604Z,13.13
2022-11-28T12:49:28.972Z,12.13
2022-11-28T12:52:23.675Z,13.27
2022-11-28T12:55:06.878Z,12.63
2022-11-28T12:58:05.553Z,13.13
2022-11-28T13:00:38.936Z,13.47
2022-11-28T13:03:36.522Z,13.03
2022-11-28T13:06:24.577Z,13.60
2022-11-28T13:09:21.793Z,13.87
2022-11-28T13:12:22.263Z,13.20
2022-11-28T13:15:03.006Z,13.07
2022-11-28T13:18:04.958Z,13.63
2022-11-28T13:21:25.572Z,12.30
2022-11-28T13:24:07.478Z,13.67
2022-11-28T13:27:00.097Z,13.57
2022-11-28T13:29:51.465Z,12.47
2022-11-28T13:32:51.792Z,12.27
2022-11-28T13:35:20.744Z,12.70
2022-11-28T13:41:28.425Z,12.17
2022-11-28T13:44:20.728Z,12.73
2022-11-28T13:46:47.923Z,13.10
2022-11-28T13:49:30.507Z,12.50
2022-11-28T13:52:18.911Z,11.60
2022-11-28T13:54:54.242Z,11.83
2022-11-28T13:57:39.753Z,10.77
2022-11-28T14:00:21.530Z,10.97
2022-11-28T14:03:00.572Z,11.83
2022-11-28T14:05:41.657Z,12.27
2022-11-28T14:08:24.042Z,12.63
2022-11-28T14:11:06.950Z,12.20
2022-11-28T14:14:20.621Z,13.17
2022-11-28T14:16:58.258Z,12.93
2022-11-28T14:20:39.148Z,13.23
2022-11-28T14:23:36.689Z,12.90
2022-11-28T14:26:31.557Z,16.80
2022-11-28T14:28:59.407Z,13.13
2022-11-28T14:31:38.853Z,14.23
2022-11-28T14:34:31.105Z,13.23
2022-11-28T14:37:19.464Z,12.70
2022-11-28T14:39:52.212Z,14.97
2022-11-28T14:42:59.624Z,14.50
2022-11-28T14:45:33.416Z,12.23
2022-11-28T14:48:30.200Z,14.30
2022-11-28T14:51:01.671Z,13.00
2022-11-28T14:53:45.630Z,15.13
2022-11-28T14:56:23.909Z,14.37
2022-11-28T14:58:56.420Z,13.67
2022-11-28T15:02:12.443Z,14.73
2022-11-28T15:05:18.415Z,14.03
2022-11-28T15:08:28.688Z,13.27
2022-11-28T15:11:16.513Z,14.50
2022-11-28T15:14:10.502Z,14.53
2022-11-28T15:16:50.214Z,13.13
2022-11-28T15:19:44.782Z,13.77
2022-11-28T15:22:39.050Z,13.37
2022-11-28T15:25:29.684Z,15.37
2022-11-28T15:27:56.890Z,15.43
2022-11-28T15:30:28.596Z,12.23
2022-11-28T15:33:04.476Z,16.50
2022-11-28T15:35:32.397Z,14.10
2022-11-28T15:37:59.305Z,13.57
2022-11-28T15:40:32.562Z,14.43
2022-11-28T15:43:01.551Z,13.43
2022-11-28T15:45:32.290Z,12.47
2022-11-28T15:47:59.235Z,14.50
2022-11-28T15:50:32.004Z,14.40
2022-11-28T15:53:17.106Z,13.73
2022-11-28T15:55:44.847Z,14.43
2022-11-28T15:58:28.825Z,14.30
2022-11-28T16:01:27.303Z,16.67
2022-11-28T16:04:17.323Z,16.97
2022-11-28T16:06:51.803Z,16.23
2022-11-28T16:09:18.514Z,15.63
2022-11-28T16:11:55.604Z,15.07
2022-11-28T16:14:29.080Z,16.53
2022-11-28T16:16:58.261Z,16.07
2022-11-28T16:19:36.367Z,15.83
2022-11-28T16:22:09.284Z,15.67
2022-11-28T16:24:57.950Z,18.60
2022-11-28T16:27:38.465Z,17.27
2022-11-28T16:30:28.286Z,14.83
2022-11-28T16:32:56.865Z,15.17
2022-11-28T16:35:40.415Z,15.83
2022-11-28T16:38:25.677Z,16.40
2022-11-28T16:41:00.857Z,16.10
2022-11-28T16:43:35.241Z,16.40
2022-11-28T16:46:08.363Z,16.57
2022-11-28T16:48:46.280Z,18.37
2022-11-28T16:51:13.154Z,18.07
2022-11-28T16:54:00.786Z,17.63
2022-11-28T16:56:30.741Z,13.80
2022-11-28T16:59:20.350Z,14.57
2022-11-28T17:01:53.137Z,16.33
2022-11-28T17:04:31.805Z,16.63
2022-11-28T17:07:05.209Z,16.73
2022-11-28T17:09:33.798Z,17.17
2022-11-28T17:12:27.205Z,16.70
2022-11-28T17:14:55.329Z,18.23
2022-11-28T17:17:24.255Z,18.60
2022-11-28T17:19:51.696Z,26.07
2022-11-28T17:22:30.166Z,29.60
2022-11-28T17:25:01.110Z,20.53
2022-11-28T17:27:28.175Z,26.43
2022-11-28T17:29:55.155Z,24.20
2022-11-28T17:32:22.028Z,47.43
2022-11-28T17:34:49.022Z,53.83
2022-11-28T17:37:16.447Z,56.40
2022-11-28T17:40:02.166Z,41.47
2022-11-28T17:42:28.980Z,21.67
2022-11-28T17:44:55.813Z,20.47
2022-11-28T17:47:23.855Z,22.13
2022-11-28T17:49:51.048Z,21.93
2022-11-28T17:52:19.982Z,22.07
2022-11-28T17:54:46.811Z,20.70
2022-11-28T17:57:13.575Z,24.43
2022-11-28T17:59:40.276Z,22.27
2022-11-28T18:02:07.463Z,20.63
2022-11-28T18:04:37.394Z,24.30
2022-11-28T18:07:04.335Z,19.57
2022-11-28T18:09:31.126Z,17.60
2022-11-28T18:11:57.858Z,18.70
2022-11-28T18:14:24.687Z,18.47
2022-11-28T18:16:51.491Z,20.67
2022-11-28T18:19:18.264Z,39.77
2022-11-28T18:21:44.998Z,19.23
2022-11-28T18:24:11.854Z,29.77
2022-11-28T18:26:39.434Z,35.60
2022-11-28T18:29:07.269Z,28.73
2022-11-28T18:31:34.834Z,45.07
2022-11-28T18:34:05.293Z,27.43
2022-11-28T18:36:34.474Z,25.00
2022-11-28T18:39:09.058Z,26.43
2022-11-28T18:41:36.419Z,23.87
2022-11-28T18:44:05.230Z,25.40
2022-11-28T18:46:33.686Z,34.67
2022-11-28T18:49:01.557Z,39.93
2022-11-28T18:51:34.002Z,34.67
2022-11-28T18:54:04.953Z,39.00
2022-11-28T18:56:31.813Z,27.93
2022-11-28T18:58:58.795Z,21.13
2022-11-28T19:01:30.254Z,20.37
2022-11-28T19:04:05.070Z,21.57
2022-11-28T19:06:34.110Z,17.93
2022-11-28T19:09:04.445Z,18.47
2022-11-28T19:11:32.470Z,16.73
2022-11-28T19:13:59.829Z,22.90
2022-11-28T19:16:33.083Z,22.80
2022-11-28T19:19:02.124Z,20.67
2022-11-28T19:21:34.838Z,17.70
2022-11-28T19:24:03.137Z,17.17
2022-11-28T19:26:33.465Z,16.80
2022-11-28T19:29:01.324Z,19.03
2022-11-28T19:31:34.612Z,19.17
2022-11-28T19:34:10.875Z,18.17
2022-11-28T19:36:41.751Z,21.83
2022-11-28T19:39:22.120Z,20.43
2022-11-28T19:41:50.615Z,21.17
2022-11-28T19:44:17.511Z,20.43
2022-11-28T19:46:44.612Z,17.80
2022-11-28T19:49:22.021Z,17.60
2022-11-28T19:51:50.859Z,17.97
2022-11-28T19:54:20.464Z,17.47
2022-11-28T19:56:48.662Z,16.30
2022-11-28T19:59:15.806Z,16.80
2022-11-28T20:01:43.177Z,17.70
2022-11-28T20:04:10.366Z,18.57
2022-11-28T20:06:37.129Z,18.17
2022-11-28T20:09:11.339Z,18.00
2022-11-28T20:11:38.587Z,17.23
2022-11-28T20:14:18.073Z,18.27
2022-11-28T20:16:45.817Z,20.63
2022-11-28T20:19:14.773Z,22.43
2022-11-28T20:21:41.866Z,21.33
2022-11-28T20:24:08.991Z,21.67
2022-11-28T20:26:43.068Z,22.10
2022-11-28T20:29:14.896Z,22.67
2022-11-28T20:31:47.634Z,24.20
2022-11-28T20:34:16.937Z,24.83
2022-11-28T20:36:44.137Z,22.00
2022-11-28T20:39:12.207Z,20.10
2022-11-28T20:41:39.453Z,18.97
2022-11-28T20:44:06.435Z,20.33
2022-11-28T20:46:35.426Z,20.00
2022-11-28T20:49:05.935Z,18.77
2022-11-28T20:51:34.809Z,18.77
2022-11-28T20:54:04.812Z,17.30
2022-11-28T20:56:51.560Z,17.30
2022-11-28T20:59:21.919Z,17.23
2022-11-28T21:01:48.952Z,17.20
2022-11-28T21:04:17.968Z,17.43
2022-11-28T21:06:47.156Z,17.07
2022-11-28T21:09:15.812Z,17.67
2022-11-28T21:11:56.748Z,18.50
2022-11-28T21:14:25.441Z,18.60
2022-11-28T21:16:52.338Z,19.47
2022-11-28T21:19:19.229Z,19.93
2022-11-28T21:21:46.005Z,22.57
2022-11-28T21:24:14.349Z,20.87
2022-11-28T21:26:46.624Z,19.63
2022-11-28T21:29:16.879Z,21.97
2022-11-28T21:31:45.638Z,21.37
2022-11-28T21:34:15.528Z,19.90
2022-11-28T21:36:43.098Z,19.47
2022-11-28T21:39:17.491Z,20.87
2022-11-28T21:41:44.556Z,20.27
2022-11-28T21:44:11.382Z,20.93
2022-11-28T21:46:38.292Z,19.20
2022-11-28T21:49:05.556Z,21.27
2022-11-28T21:51:32.344Z,20.23
2022-11-28T21:53:59.142Z,21.10
2022-11-28T21:56:26.192Z,22.30
2022-11-28T21:58:53.421Z,22.23
2022-11-28T22:01:21.446Z,23.03
2022-11-28T22:03:48.849Z,23.90
2022-11-28T22:06:18.306Z,22.63
2022-11-28T22:08:45.728Z,21.37
2022-11-28T22:11:13.354Z,21.53
2022-11-28T22:13:42.762Z,23.73
2022-11-28T22:16:22.634Z,22.03
2022-11-28T22:18:51.806Z,23.43
2022-11-28T22:21:50.199Z,22.53
2022-11-28T22:24:06.659Z,23.33
2022-11-28T22:26:34.042Z,21.57
2022-11-28T22:29:01.161Z,22.73
2022-11-28T22:31:28.160Z,23.77
2022-11-28T22:33:55.083Z,21.60
2022-11-28T22:36:23.010Z,21.57
2022-11-28T22:38:55.045Z,23.73
2022-11-28T22:41:29.021Z,22.50
2022-11-28T22:44:00.346Z,23.13
2022-11-28T22:46:28.319Z,24.07
2022-11-28T22:48:55.136Z,24.23
2022-11-28T22:51:25.594Z,23.70
2022-11-28T22:53:58.085Z,24.80
2022-11-28T22:56:25.763Z,23.33
2022-11-28T22:58:52.713Z,22.77
2022-11-28T23:01:27.235Z,23.73
2022-11-28T23:03:54.847Z,20.50
2022-11-28T23:06:29.266Z,21.67
2022-11-28T23:08:58.488Z,20.03
2022-11-28T23:11:30.888Z,20.67
2022-11-28T23:13:57.698Z,20.37
2022-11-28T23:16:32.226Z,19.37
2022-11-28T23:19:03.307Z,19.47
2022-11-28T23:21:36.985Z,19.40
2022-11-28T23:24:05.426Z,19.50
2022-11-28T23:26:34.334Z,19.07
2022-11-28T23:29:04.305Z,18.67
2022-11-28T23:31:34.661Z,19.10
2022-11-28T23:34:02.204Z,18.80
2022-11-28T23:36:32.314Z,19.90
2022-11-28T23:39:07.948Z,19.07
2022-11-28T23:41:34.737Z,19.17
2022-11-28T23:44:01.772Z,17.10
2022-11-28T23:46:29.431Z,17.80
2022-11-28T23:48:56.175Z,18.00
2022-11-28T23:51:25.666Z,19.30
2022-11-28T23:53:53.607Z,17.60
2022-11-28T23:56:23.963Z,18.30
2022-11-28T23:58:52.452Z,16.33
